Terminal Aerodrome Forecast
Issued by NWS Boston, MA

Home | Current Version | Previous Version | Text Only | Print | Product List | Glossary On
Versions: 1 2 3 4 5 6 7 8 9 10 11 12 13 14 15 16 17 18 19 20 21
000
FTUS41 KBOX 300534 AAA
TAFPVD
TAF AMD
KPVD 300534Z 3006/0106 21004KT P6SM OVC100
     FM301300 00000KT P6SM SCT100
     FM301600 10006KT P6SM SCT110
     FM301800 14008KT P6SM SCT250
     FM302000 16009KT P6SM BKN050
     FM010200 19005KT P6SM SCT050=

USA.gov is the U.S. government's official web portal to all federal, state and local government web resources and services.